Main page
METAR-TAF:

METAR-TAF

Airports :

Heathrow Airport

London-Heathrow, England

latitude: 51-29N, longitude: 000-27W, elevation: 24 m

Current weather observation

The report was made 42 minutes ago, at 19:50 UTC
Wind 12 kt from the East
Temperature 14°C
Humidity 55%
Pressure 1025 hPa
Visibility 10 km or more

METAR: EGLL 091950Z AUTO 10012KT 9999 NCD 14/05 Q1025 NOSIG

Time: 21:32 (20:32 UTC)

Forecast

The report was made 3 hours and 36 minutes ago, at 16:56 UTC
Forecast valid from 09 at 18 UTC to 10 at 24 UTC
Wind 8 kt from the East
Visibility 10 km or more
no clouds below 1500 m and no cumulonimbus
Temporary
from 09 at 19 UTC to 10 at 11 UTC
Visibility: 6000 m
Becoming
from 10 at 12 UTC to 10 at 15 UTC
Wind 10 kt from the South/Southeast
Becoming
from 10 at 21 UTC to 10 at 24 UTC
Wind 5 kt from the East

TAF: EGLL 091656Z 0918/1024 08008KT CAVOK TEMPO 0919/1011 6000 BECMG 1012/1015 16010KT BECMG 1021/1024 10005KT

Weather observations and forecasts of more than 4000 airports (METAR and TAF reports).

The available stations are represented by yellow and red dots on the map.

Hover mouse over dot to see the name of the station.

Then click to see weather observations and forecasts.

To change the map : click on the green buttons with a black cross to zoom in, on the green button with a dash to zoom out, or on the green arrows for adjacent maps.


METAR-TAF: